sensor_id;sensor_type;location;lat;lon;timestamp;P1;durP1;ratioP1;P2;durP2;ratioP2
68176;SDS011;56478;50.982;7.032;2022-12-29T00:01:34;1.40;;;1.30;;
68176;SDS011;56478;50.982;7.032;2022-12-29T00:04:00;1.35;;;1.33;;
68176;SDS011;56478;50.982;7.032;2022-12-29T00:06:26;1.13;;;1.13;;
68176;SDS011;56478;50.982;7.032;2022-12-29T00:08:52;1.40;;;1.30;;
68176;SDS011;56478;50.982;7.032;2022-12-29T00:11:19;1.23;;;1.23;;
68176;SDS011;56478;50.982;7.032;2022-12-29T00:13:46;2.17;;;1.20;;
68176;SDS011;56478;50.982;7.032;2022-12-29T00:16:30;1.15;;;1.15;;
68176;SDS011;56478;50.982;7.032;2022-12-29T00:18:57;1.00;;;1.00;;
68176;SDS011;56478;50.982;7.032;2022-12-29T00:21:23;1.00;;;1.00;;
68176;SDS011;56478;50.982;7.032;2022-12-29T00:24:26;1.17;;;1.17;;
68176;SDS011;56478;50.982;7.032;2022-12-29T00:27:09;1.00;;;1.00;;
68176;SDS011;56478;50.982;7.032;2022-12-29T00:29:54;0.82;;;0.82;;
68176;SDS011;56478;50.982;7.032;2022-12-29T00:32:38;0.70;;;0.70;;
68176;SDS011;56478;50.982;7.032;2022-12-29T00:35:28;0.80;;;0.80;;
68176;SDS011;56478;50.982;7.032;2022-12-29T00:37:55;0.73;;;0.73;;
68176;SDS011;56478;50.982;7.032;2022-12-29T00:40:41;1.20;;;1.10;;
68176;SDS011;56478;50.982;7.032;2022-12-29T00:43:25;0.90;;;0.90;;
68176;SDS011;56478;50.982;7.032;2022-12-29T00:46:09;1.10;;;1.10;;
68176;SDS011;56478;50.982;7.032;2022-12-29T00:48:35;1.02;;;1.00;;
68176;SDS011;56478;50.982;7.032;2022-12-29T00:51:19;0.80;;;0.80;;
68176;SDS011;56478;50.982;7.032;2022-12-29T00:53:44;0.98;;;0.98;;
68176;SDS011;56478;50.982;7.032;2022-12-29T00:56:10;2.60;;;1.13;;
68176;SDS011;56478;50.982;7.032;2022-12-29T00:58:35;0.80;;;0.80;;
68176;SDS011;56478;50.982;7.032;2022-12-29T01:01:04;1.33;;;0.80;;
68176;SDS011;56478;50.982;7.032;2022-12-29T01:03:31;0.98;;;0.98;;
68176;SDS011;56478;50.982;7.032;2022-12-29T01:05:59;2.13;;;1.05;;
68176;SDS011;56478;50.982;7.032;2022-12-29T01:08:26;0.85;;;0.85;;
68176;SDS011;56478;50.982;7.032;2022-12-29T01:11:06;0.82;;;0.82;;
68176;SDS011;56478;50.982;7.032;2022-12-29T01:13:33;0.77;;;0.77;;
68176;SDS011;56478;50.982;7.032;2022-12-29T01:15:59;0.85;;;0.80;;
68176;SDS011;56478;50.982;7.032;2022-12-29T01:18:25;0.70;;;0.70;;
68176;SDS011;56478;50.982;7.032;2022-12-29T01:20:58;1.00;;;0.90;;
68176;SDS011;56478;50.982;7.032;2022-12-29T01:23:30;0.70;;;0.70;;
68176;SDS011;56478;50.982;7.032;2022-12-29T01:25:56;0.80;;;0.80;;
68176;SDS011;56478;50.982;7.032;2022-12-29T01:28:22;2.05;;;1.10;;
68176;SDS011;56478;50.982;7.032;2022-12-29T01:30:48;0.75;;;0.75;;
68176;SDS011;56478;50.982;7.032;2022-12-29T01:33:13;0.93;;;0.77;;
68176;SDS011;56478;50.982;7.032;2022-12-29T01:35:39;0.82;;;0.82;;
68176;SDS011;56478;50.982;7.032;2022-12-29T01:38:05;0.60;;;0.60;;
68176;SDS011;56478;50.982;7.032;2022-12-29T01:40:31;0.98;;;0.98;;
68176;SDS011;56478;50.982;7.032;2022-12-29T01:42:57;0.80;;;0.80;;
68176;SDS011;56478;50.982;7.032;2022-12-29T01:45:22;0.70;;;0.70;;
68176;SDS011;56478;50.982;7.032;2022-12-29T01:47:57;0.60;;;0.60;;
68176;SDS011;56478;50.982;7.032;2022-12-29T01:50:30;1.23;;;0.70;;
68176;SDS011;56478;50.982;7.032;2022-12-29T01:53:02;0.70;;;0.70;;
68176;SDS011;56478;50.982;7.032;2022-12-29T01:55:33;0.75;;;0.75;;
68176;SDS011;56478;50.982;7.032;2022-12-29T01:58:03;0.80;;;0.80;;
68176;SDS011;56478;50.982;7.032;2022-12-29T02:02:56;0.68;;;0.63;;
68176;SDS011;56478;50.982;7.032;2022-12-29T02:07:58;0.60;;;0.60;;
68176;SDS011;56478;50.982;7.032;2022-12-29T02:10:25;0.88;;;0.88;;
68176;SDS011;56478;50.982;7.032;2022-12-29T02:12:55;0.60;;;0.60;;
68176;SDS011;56478;50.982;7.032;2022-12-29T02:29:16;0.85;;;0.85;;
68176;SDS011;56478;50.982;7.032;2022-12-29T02:34:37;0.80;;;0.80;;
68176;SDS011;56478;50.982;7.032;2022-12-29T02:40:25;0.63;;;0.57;;
68176;SDS011;56478;50.982;7.032;2022-12-29T02:43:01;1.10;;;0.80;;
68176;SDS011;56478;50.982;7.032;2022-12-29T02:48:38;1.00;;;1.00;;
68176;SDS011;56478;50.982;7.032;2022-12-29T02:51:08;0.70;;;0.70;;
68176;SDS011;56478;50.982;7.032;2022-12-29T02:53:54;0.73;;;0.73;;
68176;SDS011;56478;50.982;7.032;2022-12-29T02:56:40;0.70;;;0.70;;
68176;SDS011;56478;50.982;7.032;2022-12-29T02:59:05;0.95;;;0.90;;
68176;SDS011;56478;50.982;7.032;2022-12-29T03:05:17;1.08;;;0.85;;
68176;SDS011;56478;50.982;7.032;2022-12-29T03:10:24;1.23;;;0.80;;
68176;SDS011;56478;50.982;7.032;2022-12-29T03:16:20;0.90;;;0.90;;
68176;SDS011;56478;50.982;7.032;2022-12-29T03:21:39;1.60;;;1.00;;
68176;SDS011;56478;50.982;7.032;2022-12-29T03:24:29;1.33;;;1.00;;
68176;SDS011;56478;50.982;7.032;2022-12-29T03:27:01;0.80;;;0.80;;
68176;SDS011;56478;50.982;7.032;2022-12-29T03:29:29;0.90;;;0.88;;
68176;SDS011;56478;50.982;7.032;2022-12-29T03:31:58;1.73;;;1.00;;
68176;SDS011;56478;50.982;7.032;2022-12-29T03:34:25;1.10;;;1.00;;
68176;SDS011;56478;50.982;7.032;2022-12-29T03:36:56;1.00;;;1.00;;
68176;SDS011;56478;50.982;7.032;2022-12-29T03:39:25;1.15;;;1.15;;
68176;SDS011;56478;50.982;7.032;2022-12-29T03:41:54;0.80;;;0.80;;
68176;SDS011;56478;50.982;7.032;2022-12-29T03:44:38;0.98;;;0.90;;
68176;SDS011;56478;50.982;7.032;2022-12-29T03:47:06;0.60;;;0.60;;
68176;SDS011;56478;50.982;7.032;2022-12-29T03:49:32;1.45;;;0.68;;
68176;SDS011;56478;50.982;7.032;2022-12-29T03:51:58;0.68;;;0.68;;
68176;SDS011;56478;50.982;7.032;2022-12-29T03:54:24;0.93;;;0.77;;
68176;SDS011;56478;50.982;7.032;2022-12-29T03:56:49;0.80;;;0.80;;
68176;SDS011;56478;50.982;7.032;2022-12-29T03:59:15;0.60;;;0.60;;
68176;SDS011;56478;50.982;7.032;2022-12-29T04:01:40;0.77;;;0.75;;
68176;SDS011;56478;50.982;7.032;2022-12-29T04:04:06;0.90;;;0.90;;
68176;SDS011;56478;50.982;7.032;2022-12-29T04:06:31;1.45;;;1.10;;
68176;SDS011;56478;50.982;7.032;2022-12-29T04:08:57;0.90;;;0.90;;
68176;SDS011;56478;50.982;7.032;2022-12-29T04:11:22;0.93;;;0.88;;
68176;SDS011;56478;50.982;7.032;2022-12-29T04:13:48;0.80;;;0.80;;
68176;SDS011;56478;50.982;7.032;2022-12-29T04:16:13;1.25;;;0.80;;
68176;SDS011;56478;50.982;7.032;2022-12-29T04:18:39;1.85;;;1.15;;
68176;SDS011;56478;50.982;7.032;2022-12-29T04:21:05;0.63;;;0.63;;
68176;SDS011;56478;50.982;7.032;2022-12-29T04:23:32;0.63;;;0.63;;
68176;SDS011;56478;50.982;7.032;2022-12-29T04:28:25;0.85;;;0.85;;
68176;SDS011;56478;50.982;7.032;2022-12-29T04:30:51;1.85;;;0.90;;
68176;SDS011;56478;50.982;7.032;2022-12-29T04:33:17;0.82;;;0.82;;
68176;SDS011;56478;50.982;7.032;2022-12-29T04:35:43;0.63;;;0.63;;
68176;SDS011;56478;50.982;7.032;2022-12-29T04:38:08;0.80;;;0.80;;
68176;SDS011;56478;50.982;7.032;2022-12-29T04:40:34;0.90;;;0.90;;
68176;SDS011;56478;50.982;7.032;2022-12-29T04:43:00;0.88;;;0.88;;
68176;SDS011;56478;50.982;7.032;2022-12-29T04:45:25;1.83;;;0.88;;
68176;SDS011;56478;50.982;7.032;2022-12-29T04:47:51;0.80;;;0.80;;
68176;SDS011;56478;50.982;7.032;2022-12-29T04:50:16;1.35;;;0.90;;
68176;SDS011;56478;50.982;7.032;2022-12-29T04:52:42;2.15;;;0.80;;
68176;SDS011;56478;50.982;7.032;2022-12-29T04:55:07;1.92;;;0.60;;
68176;SDS011;56478;50.982;7.032;2022-12-29T04:57:33;2.25;;;0.90;;
68176;SDS011;56478;50.982;7.032;2022-12-29T04:59:59;0.95;;;0.85;;
68176;SDS011;56478;50.982;7.032;2022-12-29T05:02:24;0.93;;;0.90;;
68176;SDS011;56478;50.982;7.032;2022-12-29T05:04:50;0.80;;;0.80;;
68176;SDS011;56478;50.982;7.032;2022-12-29T05:07:15;0.88;;;0.88;;
68176;SDS011;56478;50.982;7.032;2022-12-29T05:09:41;0.98;;;0.98;;
68176;SDS011;56478;50.982;7.032;2022-12-29T05:12:06;0.60;;;0.60;;
68176;SDS011;56478;50.982;7.032;2022-12-29T05:14:32;0.95;;;0.95;;
68176;SDS011;56478;50.982;7.032;2022-12-29T05:16:57;0.80;;;0.80;;
68176;SDS011;56478;50.982;7.032;2022-12-29T05:19:23;0.88;;;0.85;;
68176;SDS011;56478;50.982;7.032;2022-12-29T05:21:48;0.90;;;0.90;;
68176;SDS011;56478;50.982;7.032;2022-12-29T05:24:14;0.80;;;0.77;;
68176;SDS011;56478;50.982;7.032;2022-12-29T05:26:40;1.00;;;1.00;;
68176;SDS011;56478;50.982;7.032;2022-12-29T05:29:06;1.30;;;1.00;;
68176;SDS011;56478;50.982;7.032;2022-12-29T05:31:31;1.50;;;1.27;;
68176;SDS011;56478;50.982;7.032;2022-12-29T05:33:58;1.48;;;0.90;;
68176;SDS011;56478;50.982;7.032;2022-12-29T05:36:24;1.13;;;1.02;;
68176;SDS011;56478;50.982;7.032;2022-12-29T05:38:49;0.80;;;0.80;;
68176;SDS011;56478;50.982;7.032;2022-12-29T05:41:15;1.02;;;1.00;;
68176;SDS011;56478;50.982;7.032;2022-12-29T05:43:41;0.90;;;0.70;;
68176;SDS011;56478;50.982;7.032;2022-12-29T05:46:06;0.90;;;0.90;;
68176;SDS011;56478;50.982;7.032;2022-12-29T05:48:31;0.70;;;0.70;;
68176;SDS011;56478;50.982;7.032;2022-12-29T05:50:57;1.10;;;0.98;;
68176;SDS011;56478;50.982;7.032;2022-12-29T05:53:22;0.85;;;0.85;;
68176;SDS011;56478;50.982;7.032;2022-12-29T05:55:48;0.63;;;0.60;;
68176;SDS011;56478;50.982;7.032;2022-12-29T05:58:17;0.88;;;0.88;;
68176;SDS011;56478;50.982;7.032;2022-12-29T06:00:43;0.77;;;0.77;;
68176;SDS011;56478;50.982;7.032;2022-12-29T06:03:09;0.95;;;0.80;;
68176;SDS011;56478;50.982;7.032;2022-12-29T06:05:34;0.98;;;0.75;;
68176;SDS011;56478;50.982;7.032;2022-12-29T06:08:00;0.60;;;0.60;;
68176;SDS011;56478;50.982;7.032;2022-12-29T06:10:25;0.65;;;0.65;;
68176;SDS011;56478;50.982;7.032;2022-12-29T06:12:51;0.73;;;0.73;;
68176;SDS011;56478;50.982;7.032;2022-12-29T06:15:17;0.75;;;0.75;;
68176;SDS011;56478;50.982;7.032;2022-12-29T06:17:42;0.90;;;0.90;;
68176;SDS011;56478;50.982;7.032;2022-12-29T06:20:09;0.75;;;0.68;;
68176;SDS011;56478;50.982;7.032;2022-12-29T06:22:35;0.85;;;0.80;;
68176;SDS011;56478;50.982;7.032;2022-12-29T06:25:01;0.73;;;0.73;;
68176;SDS011;56478;50.982;7.032;2022-12-29T06:27:27;0.95;;;0.65;;
68176;SDS011;56478;50.982;7.032;2022-12-29T06:29:53;0.85;;;0.60;;
68176;SDS011;56478;50.982;7.032;2022-12-29T06:32:18;0.50;;;0.50;;
68176;SDS011;56478;50.982;7.032;2022-12-29T06:34:44;0.60;;;0.60;;
68176;SDS011;56478;50.982;7.032;2022-12-29T06:37:10;0.52;;;0.52;;
68176;SDS011;56478;50.982;7.032;2022-12-29T06:39:36;0.70;;;0.70;;
68176;SDS011;56478;50.982;7.032;2022-12-29T06:42:01;0.50;;;0.50;;
68176;SDS011;56478;50.982;7.032;2022-12-29T06:44:28;0.80;;;0.80;;
68176;SDS011;56478;50.982;7.032;2022-12-29T06:46:53;0.77;;;0.77;;
68176;SDS011;56478;50.982;7.032;2022-12-29T06:49:19;0.70;;;0.70;;
68176;SDS011;56478;50.982;7.032;2022-12-29T06:51:45;1.95;;;0.90;;
68176;SDS011;56478;50.982;7.032;2022-12-29T06:54:11;1.67;;;0.77;;
68176;SDS011;56478;50.982;7.032;2022-12-29T06:56:36;0.93;;;0.90;;
68176;SDS011;56478;50.982;7.032;2022-12-29T06:59:02;0.50;;;0.50;;
68176;SDS011;56478;50.982;7.032;2022-12-29T07:01:28;1.70;;;0.60;;
68176;SDS011;56478;50.982;7.032;2022-12-29T07:03:53;0.60;;;0.60;;
68176;SDS011;56478;50.982;7.032;2022-12-29T07:06:19;1.05;;;0.60;;
68176;SDS011;56478;50.982;7.032;2022-12-29T07:08:45;0.77;;;0.77;;
68176;SDS011;56478;50.982;7.032;2022-12-29T07:11:10;2.55;;;0.80;;
68176;SDS011;56478;50.982;7.032;2022-12-29T07:13:36;0.80;;;0.80;;
68176;SDS011;56478;50.982;7.032;2022-12-29T07:16:08;0.77;;;0.77;;
68176;SDS011;56478;50.982;7.032;2022-12-29T07:18:34;2.13;;;0.90;;
68176;SDS011;56478;50.982;7.032;2022-12-29T07:21:00;1.13;;;0.93;;
68176;SDS011;56478;50.982;7.032;2022-12-29T07:23:26;0.73;;;0.70;;
68176;SDS011;56478;50.982;7.032;2022-12-29T07:25:58;2.15;;;0.95;;
68176;SDS011;56478;50.982;7.032;2022-12-29T07:28:27;0.80;;;0.80;;
68176;SDS011;56478;50.982;7.032;2022-12-29T07:30:53;0.95;;;0.95;;
68176;SDS011;56478;50.982;7.032;2022-12-29T07:33:18;2.22;;;1.10;;
68176;SDS011;56478;50.982;7.032;2022-12-29T07:35:44;0.82;;;0.73;;
68176;SDS011;56478;50.982;7.032;2022-12-29T07:38:10;1.80;;;0.80;;
68176;SDS011;56478;50.982;7.032;2022-12-29T07:40:35;1.05;;;0.95;;
68176;SDS011;56478;50.982;7.032;2022-12-29T07:43:01;0.68;;;0.68;;
68176;SDS011;56478;50.982;7.032;2022-12-29T07:45:26;0.50;;;0.50;;
68176;SDS011;56478;50.982;7.032;2022-12-29T07:47:52;2.05;;;1.02;;
68176;SDS011;56478;50.982;7.032;2022-12-29T07:50:17;0.80;;;0.80;;
68176;SDS011;56478;50.982;7.032;2022-12-29T07:52:43;0.60;;;0.52;;
68176;SDS011;56478;50.982;7.032;2022-12-29T07:55:10;0.80;;;0.80;;
68176;SDS011;56478;50.982;7.032;2022-12-29T07:57:35;2.67;;;0.93;;
68176;SDS011;56478;50.982;7.032;2022-12-29T08:00:01;1.13;;;0.93;;
68176;SDS011;56478;50.982;7.032;2022-12-29T08:02:28;1.67;;;1.00;;
68176;SDS011;56478;50.982;7.032;2022-12-29T08:04:54;0.50;;;0.50;;
68176;SDS011;56478;50.982;7.032;2022-12-29T08:07:20;2.00;;;1.00;;
68176;SDS011;56478;50.982;7.032;2022-12-29T08:09:46;2.15;;;0.90;;
68176;SDS011;56478;50.982;7.032;2022-12-29T08:12:11;2.78;;;1.00;;
68176;SDS011;56478;50.982;7.032;2022-12-29T08:14:37;0.75;;;0.75;;
68176;SDS011;56478;50.982;7.032;2022-12-29T08:17:02;2.10;;;0.90;;
68176;SDS011;56478;50.982;7.032;2022-12-29T08:19:28;3.38;;;1.20;;
68176;SDS011;56478;50.982;7.032;2022-12-29T08:21:54;2.70;;;1.10;;
68176;SDS011;56478;50.982;7.032;2022-12-29T08:24:19;1.92;;;0.90;;
68176;SDS011;56478;50.982;7.032;2022-12-29T08:26:45;2.65;;;1.27;;
68176;SDS011;56478;50.982;7.032;2022-12-29T08:29:11;1.70;;;0.75;;
68176;SDS011;56478;50.982;7.032;2022-12-29T08:31:36;2.17;;;1.10;;
68176;SDS011;56478;50.982;7.032;2022-12-29T08:34:02;4.63;;;1.85;;
68176;SDS011;56478;50.982;7.032;2022-12-29T08:36:28;4.53;;;1.35;;
68176;SDS011;56478;50.982;7.032;2022-12-29T08:38:55;2.17;;;1.00;;
68176;SDS011;56478;50.982;7.032;2022-12-29T08:41:21;4.63;;;1.30;;
68176;SDS011;56478;50.982;7.032;2022-12-29T08:43:47;1.52;;;1.02;;
68176;SDS011;56478;50.982;7.032;2022-12-29T08:46:13;1.55;;;1.10;;
68176;SDS011;56478;50.982;7.032;2022-12-29T08:48:39;2.33;;;0.93;;
68176;SDS011;56478;50.982;7.032;2022-12-29T08:51:04;3.95;;;1.23;;
68176;SDS011;56478;50.982;7.032;2022-12-29T08:53:30;2.25;;;1.65;;
68176;SDS011;56478;50.982;7.032;2022-12-29T08:55:56;3.03;;;1.13;;
68176;SDS011;56478;50.982;7.032;2022-12-29T08:58:24;2.92;;;1.10;;
68176;SDS011;56478;50.982;7.032;2022-12-29T09:00:51;5.50;;;1.30;;
68176;SDS011;56478;50.982;7.032;2022-12-29T09:03:18;2.55;;;1.30;;
68176;SDS011;56478;50.982;7.032;2022-12-29T09:05:47;2.88;;;1.40;;
68176;SDS011;56478;50.982;7.032;2022-12-29T09:08:14;2.25;;;1.13;;
68176;SDS011;56478;50.982;7.032;2022-12-29T09:10:40;2.97;;;1.17;;
68176;SDS011;56478;50.982;7.032;2022-12-29T09:13:05;2.35;;;0.95;;
68176;SDS011;56478;50.982;7.032;2022-12-29T09:15:31;3.00;;;1.15;;
68176;SDS011;56478;50.982;7.032;2022-12-29T09:17:56;1.58;;;0.90;;
68176;SDS011;56478;50.982;7.032;2022-12-29T09:20:22;1.35;;;0.93;;
68176;SDS011;56478;50.982;7.032;2022-12-29T09:22:47;2.10;;;1.20;;
68176;SDS011;56478;50.982;7.032;2022-12-29T09:25:13;5.03;;;1.92;;
68176;SDS011;56478;50.982;7.032;2022-12-29T09:27:39;2.80;;;1.00;;
68176;SDS011;56478;50.982;7.032;2022-12-29T09:30:06;1.73;;;1.10;;
68176;SDS011;56478;50.982;7.032;2022-12-29T09:32:33;5.32;;;1.10;;
68176;SDS011;56478;50.982;7.032;2022-12-29T09:34:59;2.60;;;1.10;;
68176;SDS011;56478;50.982;7.032;2022-12-29T09:37:25;4.72;;;1.38;;
68176;SDS011;56478;50.982;7.032;2022-12-29T09:39:51;2.58;;;1.10;;
68176;SDS011;56478;50.982;7.032;2022-12-29T09:45:38;5.65;;;1.17;;
68176;SDS011;56478;50.982;7.032;2022-12-29T09:48:25;2.05;;;1.05;;
68176;SDS011;56478;50.982;7.032;2022-12-29T09:50:55;3.63;;;1.35;;
68176;SDS011;56478;50.982;7.032;2022-12-29T09:53:29;3.67;;;1.60;;
68176;SDS011;56478;50.982;7.032;2022-12-29T09:56:01;5.30;;;1.48;;
68176;SDS011;56478;50.982;7.032;2022-12-29T09:58:36;5.00;;;1.10;;
68176;SDS011;56478;50.982;7.032;2022-12-29T10:01:06;3.05;;;1.63;;
68176;SDS011;56478;50.982;7.032;2022-12-29T10:03:49;3.05;;;1.00;;
68176;SDS011;56478;50.982;7.032;2022-12-29T10:08:59;2.77;;;1.10;;
68176;SDS011;56478;50.982;7.032;2022-12-29T10:11:46;4.60;;;1.52;;
68176;SDS011;56478;50.982;7.032;2022-12-29T10:14:33;5.38;;;1.40;;
68176;SDS011;56478;50.982;7.032;2022-12-29T10:19:55;1.58;;;1.10;;
68176;SDS011;56478;50.982;7.032;2022-12-29T10:25:20;3.90;;;1.10;;
68176;SDS011;56478;50.982;7.032;2022-12-29T10:27:49;3.90;;;1.45;;
68176;SDS011;56478;50.982;7.032;2022-12-29T10:30:16;4.20;;;1.45;;
68176;SDS011;56478;50.982;7.032;2022-12-29T10:32:51;2.45;;;1.38;;
68176;SDS011;56478;50.982;7.032;2022-12-29T10:35:23;2.60;;;1.30;;
68176;SDS011;56478;50.982;7.032;2022-12-29T10:40:22;4.40;;;1.40;;
68176;SDS011;56478;50.982;7.032;2022-12-29T10:42:53;6.60;;;1.73;;
68176;SDS011;56478;50.982;7.032;2022-12-29T10:45:20;1.83;;;0.98;;
68176;SDS011;56478;50.982;7.032;2022-12-29T10:48:08;7.75;;;1.58;;
68176;SDS011;56478;50.982;7.032;2022-12-29T10:50:40;5.18;;;1.50;;
68176;SDS011;56478;50.982;7.032;2022-12-29T10:53:08;2.42;;;1.35;;
68176;SDS011;56478;50.982;7.032;2022-12-29T10:55:42;3.95;;;1.20;;
68176;SDS011;56478;50.982;7.032;2022-12-29T10:58:10;2.45;;;1.10;;
68176;SDS011;56478;50.982;7.032;2022-12-29T11:00:38;3.97;;;1.05;;
68176;SDS011;56478;50.982;7.032;2022-12-29T11:06:10;3.83;;;1.20;;
68176;SDS011;56478;50.982;7.032;2022-12-29T11:08:38;4.68;;;1.30;;
68176;SDS011;56478;50.982;7.032;2022-12-29T11:11:10;2.47;;;1.10;;
68176;SDS011;56478;50.982;7.032;2022-12-29T11:13:49;3.08;;;1.20;;
68176;SDS011;56478;50.982;7.032;2022-12-29T11:16:26;2.33;;;1.30;;
68176;SDS011;56478;50.982;7.032;2022-12-29T11:18:55;2.28;;;1.30;;
68176;SDS011;56478;50.982;7.032;2022-12-29T11:21:34;4.68;;;1.38;;
68176;SDS011;56478;50.982;7.032;2022-12-29T11:26:55;2.15;;;1.02;;
68176;SDS011;56478;50.982;7.032;2022-12-29T11:29:41;2.72;;;1.27;;
68176;SDS011;56478;50.982;7.032;2022-12-29T11:32:23;3.20;;;1.13;;
68176;SDS011;56478;50.982;7.032;2022-12-29T11:34:51;2.80;;;1.13;;
68176;SDS011;56478;50.982;7.032;2022-12-29T11:37:59;4.47;;;1.20;;
68176;SDS011;56478;50.982;7.032;2022-12-29T11:42:36;4.10;;;1.10;;
68176;SDS011;56478;50.982;7.032;2022-12-29T11:45:09;1.53;;;1.10;;
68176;SDS011;56478;50.982;7.032;2022-12-29T11:47:42;5.43;;;1.40;;
68176;SDS011;56478;50.982;7.032;2022-12-29T11:50:15;3.85;;;1.13;;
68176;SDS011;56478;50.982;7.032;2022-12-29T11:52:46;5.03;;;1.50;;
68176;SDS011;56478;50.982;7.032;2022-12-29T11:55:20;5.60;;;1.40;;
68176;SDS011;56478;50.982;7.032;2022-12-29T11:57:49;2.80;;;1.13;;
68176;SDS011;56478;50.982;7.032;2022-12-29T12:00:21;3.63;;;1.25;;
68176;SDS011;56478;50.982;7.032;2022-12-29T12:03:00;4.10;;;1.30;;
68176;SDS011;56478;50.982;7.032;2022-12-29T12:10:35;2.50;;;1.35;;
68176;SDS011;56478;50.982;7.032;2022-12-29T12:16:07;1.95;;;0.88;;
68176;SDS011;56478;50.982;7.032;2022-12-29T12:18:39;7.15;;;1.45;;
68176;SDS011;56478;50.982;7.032;2022-12-29T12:32:41;5.95;;;1.50;;
68176;SDS011;56478;50.982;7.032;2022-12-29T12:35:32;5.03;;;1.50;;
68176;SDS011;56478;50.982;7.032;2022-12-29T12:51:41;4.10;;;1.35;;
68176;SDS011;56478;50.982;7.032;2022-12-29T13:07:39;2.05;;;1.20;;
68176;SDS011;56478;50.982;7.032;2022-12-29T13:13:00;4.88;;;1.45;;
68176;SDS011;56478;50.982;7.032;2022-12-29T13:21:13;3.38;;;1.13;;
68176;SDS011;56478;50.982;7.032;2022-12-29T13:35:06;1.92;;;1.20;;
68176;SDS011;56478;50.982;7.032;2022-12-29T13:37:46;3.40;;;1.25;;
68176;SDS011;56478;50.982;7.032;2022-12-29T13:40:18;4.00;;;1.55;;
68176;SDS011;56478;50.982;7.032;2022-12-29T13:42:48;10.90;;;1.58;;
68176;SDS011;56478;50.982;7.032;2022-12-29T13:45:18;4.47;;;1.73;;
68176;SDS011;56478;50.982;7.032;2022-12-29T13:47:51;4.07;;;1.30;;
68176;SDS011;56478;50.982;7.032;2022-12-29T13:50:29;4.15;;;1.40;;
68176;SDS011;56478;50.982;7.032;2022-12-29T14:01:03;3.15;;;1.50;;
68176;SDS011;56478;50.982;7.032;2022-12-29T14:06:25;3.53;;;1.65;;
68176;SDS011;56478;50.982;7.032;2022-12-29T14:09:03;6.18;;;1.40;;
68176;SDS011;56478;50.982;7.032;2022-12-29T14:11:31;3.88;;;1.40;;
68176;SDS011;56478;50.982;7.032;2022-12-29T14:16:31;2.80;;;1.30;;
68176;SDS011;56478;50.982;7.032;2022-12-29T14:19:09;5.70;;;1.50;;
68176;SDS011;56478;50.982;7.032;2022-12-29T14:21:58;4.82;;;1.20;;
68176;SDS011;56478;50.982;7.032;2022-12-29T14:34:45;8.13;;;1.90;;
68176;SDS011;56478;50.982;7.032;2022-12-29T14:37:44;3.55;;;1.13;;
68176;SDS011;56478;50.982;7.032;2022-12-29T14:40:05;5.07;;;1.40;;
68176;SDS011;56478;50.982;7.032;2022-12-29T14:42:37;2.47;;;1.60;;
68176;SDS011;56478;50.982;7.032;2022-12-29T14:47:46;3.17;;;1.75;;
68176;SDS011;56478;50.982;7.032;2022-12-29T14:50:13;6.68;;;1.60;;
68176;SDS011;56478;50.982;7.032;2022-12-29T14:52:47;2.20;;;1.45;;
68176;SDS011;56478;50.982;7.032;2022-12-29T14:55:41;5.15;;;1.60;;
68176;SDS011;56478;50.982;7.032;2022-12-29T14:58:17;3.50;;;1.58;;
68176;SDS011;56478;50.982;7.032;2022-12-29T15:00:54;3.83;;;1.80;;
68176;SDS011;56478;50.982;7.032;2022-12-29T15:03:22;6.20;;;2.00;;
68176;SDS011;56478;50.982;7.032;2022-12-29T15:05:54;4.40;;;1.85;;
68176;SDS011;56478;50.982;7.032;2022-12-29T15:08:24;6.18;;;2.20;;
68176;SDS011;56478;50.982;7.032;2022-12-29T15:13:33;4.93;;;1.77;;
68176;SDS011;56478;50.982;7.032;2022-12-29T15:16:03;5.22;;;1.75;;
68176;SDS011;56478;50.982;7.032;2022-12-29T15:18:30;3.95;;;1.60;;
68176;SDS011;56478;50.982;7.032;2022-12-29T15:21:02;4.93;;;1.70;;
68176;SDS011;56478;50.982;7.032;2022-12-29T15:23:31;4.78;;;1.83;;
68176;SDS011;56478;50.982;7.032;2022-12-29T15:25:59;7.93;;;2.03;;
68176;SDS011;56478;50.982;7.032;2022-12-29T15:28:28;6.00;;;1.80;;
68176;SDS011;56478;50.982;7.032;2022-12-29T15:31:15;6.22;;;1.90;;
68176;SDS011;56478;50.982;7.032;2022-12-29T15:33:41;4.35;;;1.77;;
68176;SDS011;56478;50.982;7.032;2022-12-29T15:36:14;6.45;;;1.88;;
68176;SDS011;56478;50.982;7.032;2022-12-29T15:38:44;9.02;;;1.70;;
68176;SDS011;56478;50.982;7.032;2022-12-29T15:41:19;4.32;;;1.45;;
68176;SDS011;56478;50.982;7.032;2022-12-29T15:46:27;3.15;;;1.70;;
68176;SDS011;56478;50.982;7.032;2022-12-29T15:48:55;5.05;;;1.50;;
68176;SDS011;56478;50.982;7.032;2022-12-29T15:51:30;8.02;;;1.67;;
68176;SDS011;56478;50.982;7.032;2022-12-29T15:54:03;7.20;;;1.67;;
68176;SDS011;56478;50.982;7.032;2022-12-29T15:56:29;5.97;;;1.70;;
68176;SDS011;56478;50.982;7.032;2022-12-29T15:58:56;6.80;;;1.80;;
68176;SDS011;56478;50.982;7.032;2022-12-29T16:01:35;5.22;;;1.67;;
68176;SDS011;56478;50.982;7.032;2022-12-29T16:04:06;5.40;;;1.70;;
68176;SDS011;56478;50.982;7.032;2022-12-29T16:06:37;5.05;;;2.33;;
68176;SDS011;56478;50.982;7.032;2022-12-29T16:09:16;6.15;;;2.70;;
68176;SDS011;56478;50.982;7.032;2022-12-29T16:11:54;8.63;;;2.65;;
68176;SDS011;56478;50.982;7.032;2022-12-29T16:14:57;11.32;;;2.90;;
68176;SDS011;56478;50.982;7.032;2022-12-29T16:17:30;5.90;;;2.65;;
68176;SDS011;56478;50.982;7.032;2022-12-29T16:22:46;6.95;;;3.08;;
68176;SDS011;56478;50.982;7.032;2022-12-29T16:28:17;11.38;;;3.10;;
68176;SDS011;56478;50.982;7.032;2022-12-29T16:30:46;6.90;;;2.75;;
68176;SDS011;56478;50.982;7.032;2022-12-29T16:36:21;6.38;;;2.60;;
68176;SDS011;56478;50.982;7.032;2022-12-29T16:41:42;8.27;;;2.75;;
68176;SDS011;56478;50.982;7.032;2022-12-29T16:49:23;7.88;;;2.50;;
68176;SDS011;56478;50.982;7.032;2022-12-29T16:51:49;5.70;;;2.05;;
68176;SDS011;56478;50.982;7.032;2022-12-29T16:54:20;6.32;;;2.22;;
68176;SDS011;56478;50.982;7.032;2022-12-29T16:56:49;6.20;;;2.00;;
68176;SDS011;56478;50.982;7.032;2022-12-29T16:59:33;3.55;;;1.65;;
68176;SDS011;56478;50.982;7.032;2022-12-29T17:02:05;4.65;;;1.88;;
68176;SDS011;56478;50.982;7.032;2022-12-29T17:04:33;3.70;;;1.75;;
68176;SDS011;56478;50.982;7.032;2022-12-29T17:06:58;3.88;;;2.13;;
68176;SDS011;56478;50.982;7.032;2022-12-29T17:09:25;3.53;;;1.83;;
68176;SDS011;56478;50.982;7.032;2022-12-29T17:11:55;6.32;;;1.77;;
68176;SDS011;56478;50.982;7.032;2022-12-29T17:17:05;4.78;;;1.88;;
68176;SDS011;56478;50.982;7.032;2022-12-29T17:19:37;4.00;;;1.55;;
68176;SDS011;56478;50.982;7.032;2022-12-29T17:22:10;4.28;;;2.00;;
68176;SDS011;56478;50.982;7.032;2022-12-29T17:24:38;5.63;;;2.03;;
68176;SDS011;56478;50.982;7.032;2022-12-29T17:27:04;6.78;;;2.13;;
68176;SDS011;56478;50.982;7.032;2022-12-29T17:29:31;4.38;;;2.10;;
68176;SDS011;56478;50.982;7.032;2022-12-29T17:32:00;6.60;;;2.28;;
68176;SDS011;56478;50.982;7.032;2022-12-29T17:34:28;3.93;;;1.90;;
68176;SDS011;56478;50.982;7.032;2022-12-29T17:36:53;3.75;;;1.80;;
68176;SDS011;56478;50.982;7.032;2022-12-29T17:39:19;5.60;;;2.10;;
68176;SDS011;56478;50.982;7.032;2022-12-29T17:41:44;3.17;;;1.70;;
68176;SDS011;56478;50.982;7.032;2022-12-29T17:44:15;7.20;;;2.47;;
68176;SDS011;56478;50.982;7.032;2022-12-29T17:46:43;5.55;;;1.90;;
68176;SDS011;56478;50.982;7.032;2022-12-29T17:49:10;6.20;;;1.85;;
68176;SDS011;56478;50.982;7.032;2022-12-29T17:51:37;7.43;;;2.20;;
68176;SDS011;56478;50.982;7.032;2022-12-29T17:54:03;9.98;;;2.17;;
68176;SDS011;56478;50.982;7.032;2022-12-29T17:56:29;6.47;;;1.90;;
68176;SDS011;56478;50.982;7.032;2022-12-29T17:58:55;5.55;;;1.90;;
68176;SDS011;56478;50.982;7.032;2022-12-29T18:01:20;5.60;;;2.17;;
68176;SDS011;56478;50.982;7.032;2022-12-29T18:03:46;6.57;;;2.10;;
68176;SDS011;56478;50.982;7.032;2022-12-29T18:06:12;4.28;;;2.10;;